Time;durP1;ratioP1;P1;durP2;ratioP2;P2;SDS_P1;SDS_P2;PMS_P1;PMS_P2;Temp;Humidity;BMP_temperature;BMP_pressure;BME280_temperature;BME280_humidity;BME280_pressure;Samples;Min_cycle;Max_cycle;Signal;HPM_P1;HPM_P2
2023/07/26 00:01:47;;;;;;;9.32;5.22;;;14.90;99.90;;;;;;5010085;28;20084;-75
2023/07/26 00:04:12;;;;;;;8.18;5.45;;;14.90;99.90;;;;;;5013009;28;20434;-74
2023/07/26 00:06:47;;;;;;;8.20;6.03;;;14.90;99.90;;;;;;5017251;28;20025;-75
2023/07/26 00:09:13;;;;;;;11.50;6.45;;;14.90;99.90;;;;;;5009986;28;20029;-73
2023/07/26 00:11:42;;;;;;;7.95;5.30;;;14.90;99.90;;;;;;5013879;28;20392;-73
2023/07/26 00:14:10;;;;;;;9.20;6.05;;;14.90;99.90;;;;;;5018770;28;20038;-74
2023/07/26 00:16:36;;;;;;;9.45;6.65;;;14.90;99.90;;;;;;5008833;28;20061;-74
2023/07/26 00:19:02;;;;;;;7.68;6.32;;;14.90;99.90;;;;;;5007186;28;20057;-74
2023/07/26 00:21:30;;;;;;;8.13;6.30;;;14.90;99.90;;;;;;5013103;28;20091;-74
2023/07/26 00:23:56;;;;;;;10.10;5.80;;;14.90;99.90;;;;;;5029014;28;20022;-75
2023/07/26 00:26:21;;;;;;;10.13;6.93;;;14.90;99.90;;;;;;5013870;28;20591;-74
2023/07/26 00:28:47;;;;;;;10.35;6.45;;;14.90;99.90;;;;;;5017401;28;20025;-74
2023/07/26 00:31:19;;;;;;;8.82;6.07;;;15.00;99.90;;;;;;5022815;28;20104;-74
2023/07/26 00:33:50;;;;;;;10.75;6.65;;;14.90;99.90;;;;;;5033533;28;20029;-74
2023/07/26 00:36:19;;;;;;;7.82;6.38;;;14.90;99.90;;;;;;5026193;28;20025;-75
2023/07/26 00:38:51;;;;;;;8.55;5.85;;;14.90;99.90;;;;;;5013782;28;20076;-75
2023/07/26 00:41:16;;;;;;;10.82;7.20;;;14.90;99.90;;;;;;5013821;28;20520;-75
2023/07/26 00:43:42;;;;;;;11.98;6.63;;;14.90;99.90;;;;;;5012194;28;20112;-75
2023/07/26 00:46:08;;;;;;;7.43;5.93;;;14.90;99.90;;;;;;5018694;28;20054;-75
2023/07/26 00:48:35;;;;;;;8.23;5.22;;;14.90;99.90;;;;;;4995525;28;20027;-75
2023/07/26 00:51:01;;;;;;;7.63;5.05;;;14.90;99.90;;;;;;5012012;28;20041;-75
2023/07/26 00:53:27;;;;;;;8.60;5.28;;;14.80;99.90;;;;;;5013338;28;20036;-75
2023/07/26 00:55:53;;;;;;;7.28;4.97;;;14.80;99.90;;;;;;5024997;28;20025;-75
2023/07/26 00:58:22;;;;;;;8.95;5.07;;;14.90;99.90;;;;;;5033910;28;20033;-75
2023/07/26 01:00:48;;;;;;;9.15;5.20;;;14.80;99.90;;;;;;5027391;28;20489;-75
2023/07/26 01:03:14;;;;;;;8.23;5.47;;;14.80;99.90;;;;;;4999554;28;20133;-75
2023/07/26 01:05:59;;;;;;;8.75;5.32;;;14.80;99.90;;;;;;4992567;28;20508;-75
2023/07/26 01:09:12;;;;;;;6.18;4.55;;;14.80;99.90;;;;;;4992143;28;20026;-73
2023/07/26 01:12:05;;;;;;;10.90;4.65;;;14.80;99.90;;;;;;4933235;29;20443;-74
2023/07/26 01:14:42;;;;;;;7.20;4.85;;;14.80;99.90;;;;;;4938453;29;20126;-74
2023/07/26 01:17:07;;;;;;;6.55;4.85;;;14.80;99.90;;;;;;4995525;28;20398;-74
2023/07/26 01:19:33;;;;;;;6.57;3.97;;;14.80;99.90;;;;;;5011923;28;20160;-75
2023/07/26 01:21:59;;;;;;;5.50;4.75;;;14.80;99.90;;;;;;5011445;28;20026;-75
2023/07/26 01:24:25;;;;;;;8.10;4.47;;;14.80;99.90;;;;;;5013335;28;20101;-75
2023/07/26 01:26:54;;;;;;;9.10;4.93;;;14.70;99.90;;;;;;5026570;28;20049;-75
2023/07/26 01:29:19;;;;;;;8.07;5.38;;;14.60;99.90;;;;;;5029441;28;20022;-75
2023/07/26 01:31:50;;;;;;;8.18;5.57;;;14.60;99.90;;;;;;5013039;28;20026;-75
2023/07/26 01:34:18;;;;;;;10.02;6.00;;;14.60;99.90;;;;;;4991888;28;20057;-75
2023/07/26 01:37:00;;;;;;;9.48;6.15;;;14.50;99.90;;;;;;5028722;28;20034;-75
2023/07/26 01:39:28;;;;;;;7.63;5.20;;;14.40;99.90;;;;;;5031015;28;20032;-75
2023/07/26 01:41:54;;;;;;;8.85;5.82;;;14.30;99.90;;;;;;5029956;28;20025;-75
2023/07/26 01:44:20;;;;;;;8.43;4.95;;;14.20;99.90;;;;;;5011927;28;20071;-75
2023/07/26 01:46:46;;;;;;;7.93;5.38;;;14.20;99.90;;;;;;5013778;28;20093;-76
2023/07/26 01:49:16;;;;;;;6.10;4.88;;;14.20;99.90;;;;;;5012434;28;20480;-75
2023/07/26 01:51:48;;;;;;;5.38;4.32;;;14.20;99.90;;;;;;5012633;28;20041;-75
2023/07/26 01:54:17;;;;;;;5.47;4.45;;;14.20;99.90;;;;;;5011105;28;20168;-75
2023/07/26 01:56:48;;;;;;;7.03;5.15;;;14.10;99.90;;;;;;5012590;28;20025;-75
2023/07/26 01:59:14;;;;;;;9.15;5.20;;;14.10;99.90;;;;;;4992675;28;20114;-75
2023/07/26 02:01:39;;;;;;;5.38;4.18;;;14.10;99.90;;;;;;4999760;28;20034;-74
2023/07/26 02:04:06;;;;;;;9.93;5.35;;;14.10;99.90;;;;;;5026276;28;20076;-75
2023/07/26 02:06:31;;;;;;;7.03;4.05;;;14.10;99.90;;;;;;5031986;28;20494;-75
2023/07/26 02:08:57;;;;;;;7.65;4.18;;;14.00;99.90;;;;;;5023745;28;20029;-75
2023/07/26 02:11:26;;;;;;;6.25;4.47;;;14.00;99.90;;;;;;5030420;28;20040;-74
2023/07/26 02:13:54;;;;;;;7.85;4.95;;;13.90;99.90;;;;;;5031877;28;20025;-75
2023/07/26 02:18:53;;;;;;;7.38;4.80;;;13.90;99.90;;;;;;4965778;28;20042;-75
2023/07/26 02:21:27;;;;;;;7.85;4.72;;;13.90;99.90;;;;;;4970250;28;20033;-75
2023/07/26 02:23:53;;;;;;;7.50;4.32;;;13.90;99.90;;;;;;4968956;28;20022;-75
2023/07/26 02:26:19;;;;;;;8.38;4.45;;;13.90;99.90;;;;;;4965831;28;20096;-76
2023/07/26 02:28:50;;;;;;;4.95;3.80;;;13.90;99.90;;;;;;4967743;28;20031;-75
2023/07/26 02:31:22;;;;;;;6.05;4.30;;;13.80;99.90;;;;;;4968999;28;20310;-76
2023/07/26 02:33:53;;;;;;;10.05;4.78;;;13.80;99.90;;;;;;4967513;28;20031;-75
2023/07/26 02:36:19;;;;;;;7.22;4.80;;;13.80;99.90;;;;;;4980523;28;20413;-75
2023/07/26 02:38:51;;;;;;;5.03;3.95;;;13.80;99.90;;;;;;4967939;28;20038;-76
2023/07/26 02:41:22;;;;;;;6.55;4.10;;;13.80;99.90;;;;;;4970285;28;20228;-76
2023/07/26 02:43:48;;;;;;;6.80;4.63;;;13.80;99.90;;;;;;4965521;28;20023;-76
2023/07/26 02:46:14;;;;;;;6.70;4.22;;;13.80;99.90;;;;;;4969519;28;20034;-76
2023/07/26 02:48:39;;;;;;;8.88;4.57;;;13.80;99.90;;;;;;4969467;28;20038;-76
2023/07/26 02:51:05;;;;;;;6.57;4.50;;;13.80;99.90;;;;;;4968176;28;20430;-76
2023/07/26 02:53:33;;;;;;;7.05;4.20;;;13.80;99.90;;;;;;4966402;28;20644;-76
2023/07/26 02:55:59;;;;;;;6.65;4.57;;;13.80;99.90;;;;;;4970765;28;20037;-76
2023/07/26 02:58:25;;;;;;;5.78;4.60;;;13.80;99.90;;;;;;4972586;28;20030;-75
2023/07/26 03:00:56;;;;;;;6.90;4.18;;;13.70;99.90;;;;;;4971860;28;20038;-75
2023/07/26 03:03:25;;;;;;;7.90;4.15;;;13.70;99.90;;;;;;4969744;28;20042;-75
2023/07/26 03:05:56;;;;;;;4.47;3.58;;;13.70;99.90;;;;;;4966978;28;20027;-75
2023/07/26 03:08:21;;;;;;;6.10;3.47;;;13.70;99.90;;;;;;4968751;28;20023;-75
2023/07/26 03:10:49;;;;;;;6.97;3.30;;;13.70;99.90;;;;;;4973727;28;20082;-75
2023/07/26 03:13:15;;;;;;;6.03;3.50;;;13.70;99.90;;;;;;4973214;28;20031;-76
2023/07/26 03:15:45;;;;;;;6.95;3.85;;;13.70;99.90;;;;;;4972715;28;20113;-75
2023/07/26 03:18:10;;;;;;;4.90;3.50;;;13.70;99.90;;;;;;4969109;28;20031;-74
2023/07/26 03:20:36;;;;;;;4.05;3.13;;;13.70;99.90;;;;;;4972418;28;20034;-75
2023/07/26 03:23:02;;;;;;;6.95;3.65;;;13.70;99.90;;;;;;4971364;28;20031;-75
2023/07/26 03:25:30;;;;;;;8.07;3.28;;;13.70;99.90;;;;;;4972209;28;20094;-76
2023/07/26 03:27:56;;;;;;;5.28;3.70;;;13.70;99.90;;;;;;4968795;28;21011;-77
2023/07/26 03:30:22;;;;;;;6.65;3.40;;;13.70;99.90;;;;;;4969068;28;20321;-76
2023/07/26 03:32:47;;;;;;;3.67;3.03;;;13.70;99.90;;;;;;4968603;28;20034;-76
2023/07/26 03:35:13;;;;;;;4.60;2.70;;;13.70;99.90;;;;;;4967839;28;20039;-76
2023/07/26 03:37:38;;;;;;;2.97;2.40;;;13.70;99.90;;;;;;4970642;28;20027;-75
2023/07/26 03:40:11;;;;;;;2.90;2.28;;;13.70;99.90;;;;;;4965599;28;20307;-76
2023/07/26 03:42:51;;;;;;;5.72;3.88;;;13.70;99.90;;;;;;4985994;28;20437;-75
2023/07/26 03:45:17;;;;;;;4.18;2.75;;;13.70;99.90;;;;;;4970440;28;20033;-75
2023/07/26 03:47:46;;;;;;;5.10;2.90;;;13.70;99.90;;;;;;4967593;28;20030;-76
2023/07/26 03:50:17;;;;;;;4.30;3.42;;;13.70;99.90;;;;;;4971201;28;20050;-75
2023/07/26 03:52:52;;;;;;;6.20;3.40;;;13.80;99.90;;;;;;4969503;28;20058;-76
2023/07/26 03:55:17;;;;;;;5.88;2.95;;;13.70;99.90;;;;;;4965996;28;20035;-75
2023/07/26 03:57:46;;;;;;;3.80;2.90;;;13.70;99.90;;;;;;4970838;28;20026;-76
2023/07/26 04:00:12;;;;;;;3.38;2.70;;;13.70;99.90;;;;;;4971226;28;20042;-76
2023/07/26 04:02:38;;;;;;;4.35;3.10;;;13.70;99.90;;;;;;4969701;28;20082;-75
2023/07/26 04:05:12;;;;;;;6.65;3.47;;;13.70;99.90;;;;;;4968934;28;20406;-75
2023/07/26 04:07:47;;;;;;;5.50;3.88;;;13.70;99.90;;;;;;4971871;28;20406;-77
2023/07/26 04:10:13;;;;;;;4.70;3.83;;;13.60;99.90;;;;;;4971011;28;20038;-76
2023/07/26 04:12:38;;;;;;;4.15;3.30;;;13.60;99.90;;;;;;4971392;28;20030;-76
2023/07/26 04:15:10;;;;;;;5.95;3.80;;;13.60;99.90;;;;;;4969810;28;20041;-76
2023/07/26 04:17:39;;;;;;;5.07;3.70;;;13.60;99.90;;;;;;4969827;28;20041;-76
2023/07/26 04:20:08;;;;;;;7.22;4.45;;;13.60;99.90;;;;;;4987219;28;20071;-76
2023/07/26 04:22:34;;;;;;;7.93;4.10;;;13.60;99.90;;;;;;4969330;28;20126;-76
2023/07/26 04:25:08;;;;;;;7.50;4.80;;;13.60;99.90;;;;;;4970098;28;20150;-76
2023/07/26 04:27:34;;;;;;;5.55;4.22;;;13.60;99.90;;;;;;4971855;28;20084;-76
2023/07/26 04:29:59;;;;;;;8.65;4.47;;;13.60;99.90;;;;;;4968766;28;20437;-76
2023/07/26 04:32:25;;;;;;;7.20;4.53;;;13.60;99.90;;;;;;4970178;28;20039;-76
2023/07/26 04:34:50;;;;;;;6.20;4.35;;;13.60;99.90;;;;;;4982213;28;20084;-76
2023/07/26 04:37:25;;;;;;;6.82;4.55;;;13.60;99.90;;;;;;4970911;28;20381;-77
2023/07/26 04:39:51;;;;;;;5.50;3.85;;;13.60;99.90;;;;;;4970816;28;20042;-76
2023/07/26 04:42:18;;;;;;;5.88;3.55;;;13.60;99.90;;;;;;4967749;28;20027;-76
2023/07/26 04:44:49;;;;;;;4.70;4.13;;;13.60;99.90;;;;;;4962845;28;20103;-75
2023/07/26 04:47:16;;;;;;;5.10;3.80;;;13.70;99.90;;;;;;4962702;28;20023;-75
2023/07/26 04:49:48;;;;;;;5.55;4.15;;;13.70;99.90;;;;;;4968419;28;20110;-75
2023/07/26 04:52:14;;;;;;;5.53;4.18;;;13.60;99.90;;;;;;4970988;28;20035;-76
2023/07/26 04:54:39;;;;;;;6.70;4.22;;;13.70;99.90;;;;;;4965824;28;20110;-77
2023/07/26 04:57:05;;;;;;;6.10;3.83;;;13.70;99.90;;;;;;4971424;28;20034;-77
2023/07/26 04:59:31;;;;;;;8.73;4.57;;;13.70;99.90;;;;;;4966226;28;20039;-76
2023/07/26 05:01:59;;;;;;;7.03;4.55;;;13.70;99.90;;;;;;4969396;28;20489;-76
2023/07/26 05:04:25;;;;;;;8.40;4.18;;;13.80;99.90;;;;;;4966910;28;20517;-76
2023/07/26 05:06:50;;;;;;;7.88;4.35;;;13.80;99.90;;;;;;4968963;28;20031;-77
2023/07/26 05:09:16;;;;;;;6.53;4.43;;;13.80;99.90;;;;;;4968397;28;20482;-76
2023/07/26 05:11:42;;;;;;;6.82;5.07;;;13.80;99.90;;;;;;4968218;28;20298;-76
2023/07/26 05:14:07;;;;;;;6.85;4.70;;;13.90;99.90;;;;;;4964632;28;20030;-76
2023/07/26 05:16:42;;;;;;;7.30;5.45;;;13.90;99.90;;;;;;4965337;28;20851;-75
2023/07/26 05:19:14;;;;;;;7.40;4.47;;;13.90;99.90;;;;;;4968789;28;20034;-76
2023/07/26 05:21:46;;;;;;;6.80;4.85;;;13.90;99.90;;;;;;4966388;28;20772;-77
2023/07/26 05:24:11;;;;;;;7.20;5.03;;;13.90;99.90;;;;;;4965799;28;20073;-76
2023/07/26 05:26:40;;;;;;;8.45;5.15;;;14.00;99.90;;;;;;4968957;28;20028;-76
2023/07/26 05:29:05;;;;;;;7.90;4.95;;;14.00;99.90;;;;;;4981353;28;20069;-77
2023/07/26 05:31:34;;;;;;;7.43;5.90;;;14.00;99.90;;;;;;4968598;28;20046;-76
2023/07/26 05:34:06;;;;;;;7.60;5.20;;;14.00;99.90;;;;;;4964399;28;20035;-75
2023/07/26 05:36:31;;;;;;;5.38;4.88;;;14.00;99.90;;;;;;4968691;28;20038;-76
2023/07/26 05:38:57;;;;;;;9.80;5.03;;;14.10;99.90;;;;;;4968433;28;20122;-76
2023/07/26 05:41:26;;;;;;;8.40;5.20;;;14.10;99.90;;;;;;4971856;28;20027;-76
2023/07/26 05:43:55;;;;;;;10.00;5.10;;;14.10;99.90;;;;;;4968367;28;20030;-75
2023/07/26 05:46:20;;;;;;;6.75;3.97;;;14.10;99.90;;;;;;4964923;28;20027;-75
2023/07/26 05:48:46;;;;;;;8.95;4.78;;;14.10;99.90;;;;;;4967036;28;20023;-76
2023/07/26 05:51:14;;;;;;;5.25;4.30;;;14.10;99.90;;;;;;4971704;28;20045;-76
2023/07/26 05:53:46;;;;;;;7.82;4.88;;;14.20;99.90;;;;;;4971739;28;20031;-77
2023/07/26 05:56:13;;;;;;;9.40;4.88;;;14.20;99.90;;;;;;4969898;28;20149;-77
2023/07/26 05:58:45;;;;;;;6.30;4.95;;;14.20;99.90;;;;;;4971739;28;20089;-78
2023/07/26 06:01:23;;;;;;;8.52;5.55;;;14.20;99.90;;;;;;4969901;28;20038;-77
2023/07/26 06:03:51;;;;;;;8.38;5.00;;;14.20;99.90;;;;;;4970290;28;20446;-76
2023/07/26 06:06:17;;;;;;;7.25;4.45;;;14.20;99.90;;;;;;4969390;28;20022;-77
2023/07/26 06:08:43;;;;;;;8.27;4.38;;;14.20;99.90;;;;;;4971323;28;20030;-75
2023/07/26 06:11:14;;;;;;;5.05;3.92;;;14.20;99.90;;;;;;4968162;28;20031;-76
2023/07/26 06:13:40;;;;;;;4.78;3.83;;;14.20;99.90;;;;;;4968792;28;20226;-77
2023/07/26 06:16:06;;;;;;;7.28;4.38;;;14.20;99.90;;;;;;4968494;28;20495;-76
2023/07/26 06:18:32;;;;;;;5.95;4.72;;;14.30;99.90;;;;;;4972197;28;20039;-74
2023/07/26 06:21:04;;;;;;;6.50;5.30;;;14.30;99.90;;;;;;4972811;28;20035;-74
2023/07/26 06:23:30;;;;;;;6.15;4.20;;;14.30;99.90;;;;;;4974088;28;20035;-74
2023/07/26 06:25:58;;;;;;;8.82;4.30;;;14.30;99.90;;;;;;4970717;28;20592;-72
2023/07/26 06:28:27;;;;;;;6.30;4.25;;;14.30;99.90;;;;;;4971238;28;20027;-74
2023/07/26 06:30:55;;;;;;;10.05;5.10;;;14.30;99.90;;;;;;4977101;28;20114;-75
2023/07/26 06:33:21;;;;;;;5.03;3.95;;;14.40;99.90;;;;;;4977911;28;20027;-73
2023/07/26 06:35:47;;;;;;;6.20;3.75;;;14.40;99.90;;;;;;4977418;28;20037;-73
2023/07/26 06:38:15;;;;;;;7.63;3.72;;;14.50;99.90;;;;;;4974144;28;20042;-72
2023/07/26 06:40:41;;;;;;;9.05;3.90;;;14.60;99.90;;;;;;4977008;28;20481;-73
2023/07/26 06:43:12;;;;;;;5.15;3.50;;;14.70;99.90;;;;;;4975606;28;20030;-73
2023/07/26 06:45:49;;;;;;;5.13;4.32;;;14.70;99.90;;;;;;4972899;28;20581;-73
2023/07/26 06:48:14;;;;;;;7.47;3.78;;;14.80;99.90;;;;;;4980356;28;20470;-72
2023/07/26 06:50:41;;;;;;;6.00;4.40;;;14.90;99.90;;;;;;4969174;28;20117;-72
2023/07/26 06:53:12;;;;;;;7.68;4.18;;;15.00;99.90;;;;;;4973423;28;20030;-72
2023/07/26 06:55:38;;;;;;;5.88;3.85;;;15.10;99.90;;;;;;4974714;28;20504;-72
2023/07/26 06:58:16;;;;;;;5.65;3.15;;;15.20;99.90;;;;;;4976150;28;20079;-71
2023/07/26 07:00:45;;;;;;;6.80;3.85;;;15.20;99.90;;;;;;4963976;28;20062;-74
2023/07/26 07:03:16;;;;;;;4.90;3.17;;;15.30;99.90;;;;;;4970349;28;20118;-74
2023/07/26 07:05:42;;;;;;;5.43;3.35;;;15.40;99.90;;;;;;4971780;28;20073;-74
2023/07/26 07:08:08;;;;;;;3.58;3.00;;;15.40;99.90;;;;;;4970548;28;20030;-73
2023/07/26 07:10:39;;;;;;;5.53;3.83;;;15.50;99.90;;;;;;4964132;28;20113;-74
2023/07/26 07:13:14;;;;;;;7.18;3.30;;;15.50;99.90;;;;;;4969629;28;20034;-74
2023/07/26 07:15:39;;;;;;;4.22;2.97;;;15.60;99.90;;;;;;4967757;28;20070;-74
2023/07/26 07:18:08;;;;;;;4.63;2.97;;;15.60;99.90;;;;;;4965995;28;20450;-74
2023/07/26 07:20:33;;;;;;;4.68;3.67;;;15.50;99.90;;;;;;4964932;28;20102;-74
2023/07/26 07:23:04;;;;;;;4.90;3.08;;;15.50;99.90;;;;;;4966348;28;20038;-74
2023/07/26 07:25:30;;;;;;;4.95;2.88;;;15.50;99.90;;;;;;4966889;28;20015;-74
2023/07/26 07:27:55;;;;;;;5.50;3.20;;;15.50;99.90;;;;;;4967777;28;20061;-74
2023/07/26 07:30:27;;;;;;;4.65;2.92;;;15.40;99.90;;;;;;4961486;28;20423;-75
2023/07/26 07:32:52;;;;;;;4.78;3.85;;;15.40;99.90;;;;;;4963489;28;20102;-74
2023/07/26 07:35:18;;;;;;;8.35;3.63;;;15.40;99.90;;;;;;4965905;28;20129;-74
2023/07/26 07:37:44;;;;;;;9.93;3.35;;;15.40;99.90;;;;;;4966661;28;20026;-75
2023/07/26 07:40:13;;;;;;;5.28;3.10;;;15.40;99.90;;;;;;4967370;28;20041;-75
2023/07/26 07:42:38;;;;;;;4.80;3.38;;;15.40;99.90;;;;;;4977851;28;20129;-75
2023/07/26 07:45:05;;;;;;;4.20;3.78;;;15.40;99.90;;;;;;4966698;28;20458;-74
2023/07/26 07:47:30;;;;;;;6.25;3.30;;;15.50;99.90;;;;;;4964720;28;20033;-75
2023/07/26 07:49:56;;;;;;;4.88;3.58;;;15.40;99.90;;;;;;4966352;28;20023;-77
2023/07/26 07:52:22;;;;;;;6.05;3.42;;;15.40;99.90;;;;;;4971660;28;20404;-77
2023/07/26 07:54:47;;;;;;;5.68;3.33;;;15.50;99.90;;;;;;4972072;28;20519;-77
2023/07/26 07:57:13;;;;;;;5.57;3.15;;;15.50;99.90;;;;;;4971945;28;20421;-76
2023/07/26 07:59:39;;;;;;;5.07;3.25;;;15.50;99.90;;;;;;4977519;28;20042;-77
2023/07/26 08:02:05;;;;;;;6.28;3.88;;;15.50;99.90;;;;;;4973795;28;20474;-77
2023/07/26 08:04:31;;;;;;;5.35;3.53;;;15.40;99.90;;;;;;4974550;28;20041;-76
2023/07/26 08:06:57;;;;;;;8.40;3.95;;;15.40;99.90;;;;;;4966164;28;20027;-76
2023/07/26 08:09:25;;;;;;;8.93;3.70;;;15.30;99.90;;;;;;4975717;28;20082;-77
2023/07/26 08:11:53;;;;;;;7.47;3.72;;;15.30;99.90;;;;;;4976781;28;20026;-77
2023/07/26 08:14:19;;;;;;;8.30;4.13;;;15.20;99.90;;;;;;4976309;28;20035;-77
2023/07/26 08:16:51;;;;;;;8.80;4.13;;;15.10;99.90;;;;;;4974529;28;20037;-75
2023/07/26 08:19:16;;;;;;;7.22;3.60;;;15.00;99.90;;;;;;4965635;28;20030;-75
2023/07/26 08:21:45;;;;;;;8.52;4.55;;;14.80;99.90;;;;;;4967868;28;20371;-75
2023/07/26 08:24:11;;;;;;;5.90;3.83;;;14.70;99.90;;;;;;4968291;28;20031;-75
2023/07/26 08:26:37;;;;;;;9.02;2.63;;;14.50;99.90;;;;;;4970447;28;20038;-74
2023/07/26 08:29:03;;;;;;;4.70;2.42;;;14.30;99.90;;;;;;4968304;28;20660;-75
2023/07/26 08:31:29;;;;;;;3.90;3.20;;;14.20;99.90;;;;;;4971377;28;20058;-74
2023/07/26 08:33:54;;;;;;;4.82;2.85;;;14.10;99.90;;;;;;4969590;28;20019;-75
2023/07/26 08:36:20;;;;;;;7.65;3.38;;;14.10;99.90;;;;;;4972223;28;20023;-76
2023/07/26 08:38:49;;;;;;;6.25;4.07;;;14.00;99.90;;;;;;4972991;28;20541;-76
2023/07/26 08:41:18;;;;;;;5.20;3.30;;;14.00;99.90;;;;;;4971354;28;20026;-75
2023/07/26 08:43:46;;;;;;;5.13;3.33;;;14.00;99.90;;;;;;4968199;28;20035;-76
2023/07/26 08:46:15;;;;;;;5.18;3.30;;;14.00;99.90;;;;;;4971445;28;20026;-75
2023/07/26 08:48:44;;;;;;;8.25;3.80;;;14.00;99.90;;;;;;4971381;28;20023;-76
2023/07/26 08:51:10;;;;;;;6.43;3.63;;;13.90;99.90;;;;;;4964003;28;21320;-75
2023/07/26 08:53:36;;;;;;;5.28;3.10;;;13.90;99.90;;;;;;4964969;28;21793;-76
2023/07/26 08:56:03;;;;;;;15.50;4.78;;;13.90;99.90;;;;;;4963921;28;20058;-75
2023/07/26 08:58:29;;;;;;;18.65;4.43;;;13.70;99.90;;;;;;4967459;28;20592;-76
2023/07/26 09:00:57;;;;;;;6.45;2.28;;;13.60;99.90;;;;;;4967733;28;20031;-76
2023/07/26 09:03:22;;;;;;;7.03;2.38;;;13.30;99.90;;;;;;4963368;28;20090;-76
2023/07/26 09:06:05;;;;;;;5.72;2.60;;;13.20;99.90;;;;;;4966130;28;20027;-75
2023/07/26 09:08:30;;;;;;;4.53;2.42;;;13.10;99.90;;;;;;4966353;28;20031;-76
2023/07/26 09:11:23;;;;;;;4.90;3.00;;;13.00;99.90;;;;;;4980269;28;20027;-76
2023/07/26 09:13:59;;;;;;;5.13;2.53;;;13.00;99.90;;;;;;4968068;28;20026;-76
2023/07/26 09:16:29;;;;;;;3.92;2.90;;;13.00;99.90;;;;;;4968245;28;20031;-76
2023/07/26 09:19:04;;;;;;;4.35;2.47;;;13.00;99.90;;;;;;4969207;28;20103;-75
2023/07/26 09:21:37;;;;;;;3.78;2.67;;;12.90;99.90;;;;;;4968462;28;20141;-75
2023/07/26 09:24:03;;;;;;;4.35;2.97;;;12.90;99.90;;;;;;4966776;28;20018;-74
2023/07/26 09:26:35;;;;;;;5.78;2.88;;;12.80;99.90;;;;;;4968979;28;20390;-75
2023/07/26 09:29:05;;;;;;;3.30;2.13;;;12.80;99.90;;;;;;4964817;28;20501;-74
2023/07/26 09:31:32;;;;;;;3.40;2.63;;;12.90;99.90;;;;;;4985093;28;20041;-74
2023/07/26 09:34:02;;;;;;;6.43;2.90;;;12.90;99.90;;;;;;4969724;28;20022;-74
2023/07/26 09:36:49;;;;;;;4.43;2.75;;;13.00;99.90;;;;;;4969199;28;20019;-75
2023/07/26 09:39:17;;;;;;;2.47;2.13;;;13.00;99.90;;;;;;4966513;28;20485;-74
2023/07/26 09:41:50;;;;;;;3.40;2.25;;;13.10;99.90;;;;;;4969049;28;20026;-74
2023/07/26 09:44:21;;;;;;;4.82;3.22;;;13.00;99.90;;;;;;4967378;28;20029;-74
2023/07/26 09:46:48;;;;;;;5.60;3.03;;;13.20;99.90;;;;;;4969315;28;20437;-74
2023/07/26 09:49:14;;;;;;;5.15;2.22;;;13.20;99.90;;;;;;4964925;28;20377;-73
2023/07/26 09:51:41;;;;;;;5.22;3.17;;;13.10;99.90;;;;;;4964981;28;20027;-72
2023/07/26 09:54:11;;;;;;;4.38;2.78;;;13.20;99.90;;;;;;4980998;28;20114;-74
2023/07/26 09:56:46;;;;;;;4.88;2.78;;;13.30;99.90;;;;;;4966966;28;20027;-74
2023/07/26 09:59:13;;;;;;;6.22;3.97;;;13.50;99.90;;;;;;4962815;28;20470;-72
2023/07/26 10:01:44;;;;;;;3.85;3.10;;;13.50;99.90;;;;;;4966882;28;20030;-73
2023/07/26 10:04:19;;;;;;;4.13;2.95;;;13.60;99.90;;;;;;4967974;28;20033;-72
2023/07/26 10:06:48;;;;;;;7.55;2.80;;;13.80;99.90;;;;;;4969668;28;20432;-72
2023/07/26 10:09:16;;;;;;;3.90;2.40;;;13.90;99.90;;;;;;4968229;28;20035;-73
2023/07/26 10:11:43;;;;;;;3.88;2.72;;;14.00;99.90;;;;;;4969279;28;20445;-74
2023/07/26 10:14:11;;;;;;;5.78;2.85;;;14.10;99.90;;;;;;4967665;28;20022;-73
2023/07/26 10:16:38;;;;;;;4.07;1.60;;;14.30;99.90;;;;;;4969771;28;20085;-74
2023/07/26 10:19:05;;;;;;;2.83;1.60;;;14.30;99.90;;;;;;4964175;28;20408;-74
2023/07/26 10:21:31;;;;;;;3.50;1.65;;;14.40;99.90;;;;;;4963328;28;20081;-74
2023/07/26 10:24:02;;;;;;;2.40;1.48;;;14.50;99.90;;;;;;4964900;28;20062;-73
2023/07/26 10:26:33;;;;;;;3.40;2.00;;;14.50;99.90;;;;;;4965685;28;20026;-73
2023/07/26 10:28:59;;;;;;;6.47;1.92;;;14.50;99.90;;;;;;4965977;28;20154;-73
2023/07/26 10:31:29;;;;;;;3.28;1.60;;;14.40;99.90;;;;;;4970754;28;20023;-73
2023/07/26 10:33:56;;;;;;;2.80;1.30;;;14.30;99.90;;;;;;4962270;28;20108;-76
2023/07/26 10:36:28;;;;;;;9.05;2.72;;;14.30;99.90;;;;;;4970914;28;20045;-75
2023/07/26 10:38:54;;;;;;;5.90;2.60;;;14.20;99.90;;;;;;4981478;28;20137;-76
2023/07/26 10:41:25;;;;;;;4.30;2.33;;;14.20;99.90;;;;;;4967908;28;20070;-76
2023/07/26 10:44:02;;;;;;;6.28;2.97;;;14.20;99.90;;;;;;4969961;28;20503;-76
2023/07/26 10:46:52;;;;;;;8.65;3.28;;;14.10;99.90;;;;;;4963779;28;20035;-76
2023/07/26 10:49:26;;;;;;;6.05;3.35;;;14.10;99.90;;;;;;4967747;28;20110;-76
2023/07/26 10:52:04;;;;;;;4.75;2.78;;;14.20;99.90;;;;;;4966157;28;20505;-76
2023/07/26 10:54:52;;;;;;;5.32;3.17;;;14.20;99.90;;;;;;4967548;28;20064;-76
2023/07/26 10:57:20;;;;;;;5.38;2.58;;;14.20;99.90;;;;;;4968478;28;20047;-75
2023/07/26 11:00:10;;;;;;;5.50;2.63;;;14.30;99.90;;;;;;4967983;28;20936;-75
2023/07/26 11:02:48;;;;;;;3.78;2.30;;;14.40;99.90;;;;;;4965157;28;20502;-76
2023/07/26 11:05:22;;;;;;;4.43;2.53;;;14.40;99.90;;;;;;4980066;28;20058;-75
2023/07/26 11:08:01;;;;;;;3.70;1.85;;;14.50;99.90;;;;;;4966980;28;20026;-76
2023/07/26 11:10:51;;;;;;;3.95;2.05;;;14.60;99.90;;;;;;4969151;28;20042;-76
2023/07/26 11:13:18;;;;;;;3.03;2.30;;;14.60;99.90;;;;;;4967652;28;20015;-76
2023/07/26 11:15:49;;;;;;;4.45;2.60;;;14.70;99.90;;;;;;4965526;28;20034;-76
2023/07/26 11:18:16;;;;;;;5.15;2.05;;;14.60;99.90;;;;;;4973090;28;20030;-75
2023/07/26 11:20:47;;;;;;;2.65;2.00;;;14.70;99.90;;;;;;4972213;28;20038;-75
2023/07/26 11:23:26;;;;;;;2.90;1.95;;;14.70;99.90;;;;;;4971682;28;20033;-76
2023/07/26 11:25:58;;;;;;;3.40;1.90;;;14.80;99.90;;;;;;4971691;28;20125;-76
2023/07/26 11:28:27;;;;;;;4.20;1.98;;;14.90;99.90;;;;;;4969902;28;20406;-76
2023/07/26 11:30:58;;;;;;;3.30;1.95;;;14.90;99.90;;;;;;4972897;28;20023;-76
2023/07/26 11:33:28;;;;;;;2.97;2.15;;;15.00;99.90;;;;;;4970963;28;20038;-76
2023/07/26 11:35:54;;;;;;;5.22;1.98;;;15.10;99.90;;;;;;4969261;28;20070;-76
2023/07/26 11:38:23;;;;;;;4.28;1.92;;;15.10;99.90;;;;;;4970585;28;20097;-76
2023/07/26 11:40:50;;;;;;;2.97;1.70;;;15.20;99.90;;;;;;4969174;28;20034;-76
2023/07/26 11:43:16;;;;;;;2.60;1.40;;;15.30;99.90;;;;;;4969628;28;20031;-75
2023/07/26 11:45:43;;;;;;;2.42;1.08;;;15.50;99.90;;;;;;4969568;28;20576;-76
2023/07/26 11:48:10;;;;;;;2.00;1.35;;;15.60;99.90;;;;;;4968904;28;20437;-75
2023/07/26 11:50:36;;;;;;;1.70;1.10;;;15.70;99.90;;;;;;4969338;28;20038;-75
2023/07/26 11:53:07;;;;;;;4.78;0.93;;;15.80;99.90;;;;;;4970477;28;20038;-75
2023/07/26 11:55:34;;;;;;;2.25;1.02;;;15.90;99.90;;;;;;4963374;28;20035;-75
2023/07/26 11:58:03;;;;;;;1.75;1.20;;;16.00;99.90;;;;;;4968162;28;20030;-75
2023/07/26 12:00:31;;;;;;;1.30;0.98;;;16.10;99.90;;;;;;4968337;28;20390;-75
2023/07/26 12:02:57;;;;;;;3.63;1.45;;;16.20;99.90;;;;;;4967800;28;20034;-77
2023/07/26 12:05:26;;;;;;;1.45;1.10;;;16.30;99.90;;;;;;4963187;28;20482;-75
2023/07/26 12:07:53;;;;;;;2.80;1.40;;;16.40;99.90;;;;;;4967443;28;20019;-75
2023/07/26 12:10:46;;;;;;;2.53;1.00;;;16.40;99.90;;;;;;4967100;28;20019;-75
2023/07/26 12:13:23;;;;;;;2.05;1.00;;;16.40;99.90;;;;;;4963035;28;20047;-75
2023/07/26 12:15:51;;;;;;;2.30;1.00;;;16.40;99.90;;;;;;4968698;28;20116;-74
2023/07/26 12:18:18;;;;;;;1.42;0.90;;;16.40;99.90;;;;;;4969353;28;20034;-74
2023/07/26 12:21:03;;;;;;;1.27;0.90;;;16.40;99.90;;;;;;4966559;28;20041;-74
2023/07/26 12:23:49;;;;;;;1.25;0.80;;;16.30;99.90;;;;;;4967592;28;20023;-74
2023/07/26 12:26:14;;;;;;;1.45;0.90;;;16.20;99.90;;;;;;4965541;28;20441;-74
2023/07/26 12:28:41;;;;;;;2.58;1.20;;;16.20;99.90;;;;;;4965404;28;20035;-75
2023/07/26 12:31:07;;;;;;;2.33;1.13;;;16.20;99.90;;;;;;4969488;28;20045;-74
2023/07/26 12:33:35;;;;;;;3.60;1.25;;;16.20;99.90;;;;;;4972577;28;20035;-74
2023/07/26 12:36:02;;;;;;;1.63;1.00;;;16.30;99.90;;;;;;4964352;28;20038;-74
2023/07/26 12:38:27;;;;;;;1.17;0.90;;;16.40;99.90;;;;;;4965887;28;20034;-76
2023/07/26 12:40:53;;;;;;;4.28;1.20;;;16.40;99.90;;;;;;4963356;28;20398;-75
2023/07/26 12:43:37;;;;;;;3.00;1.15;;;16.50;99.90;;;;;;4968193;28;20030;-75
2023/07/26 12:46:02;;;;;;;3.03;1.35;;;16.60;99.90;;;;;;4965305;28;20278;-76
2023/07/26 12:48:29;;;;;;;1.83;1.13;;;16.70;99.90;;;;;;4968130;28;20097;-75
2023/07/26 12:50:56;;;;;;;4.38;1.30;;;16.80;99.90;;;;;;4957576;28;20087;-74
2023/07/26 12:53:23;;;;;;;4.15;1.25;;;16.90;99.90;;;;;;4969105;28;20069;-73
2023/07/26 12:55:50;;;;;;;3.97;1.10;;;17.00;99.90;;;;;;4970993;28;20394;-73
2023/07/26 12:58:16;;;;;;;2.08;1.10;;;17.00;99.90;;;;;;4965753;28;22509;-74